createdAt,value
2017-03-31T00:00:12.990Z,38.16
2017-03-31T00:01:12.995Z,38.06
2017-03-31T00:02:13.003Z,38.16
2017-03-31T00:03:12.692Z,38.16
2017-03-31T00:04:14.064Z,38.06
2017-03-31T00:05:13.317Z,37.96
2017-03-31T00:06:13.022Z,38.16
2017-03-31T00:07:13.080Z,38.16
2017-03-31T00:08:13.036Z,38.16
2017-03-31T00:09:13.041Z,38.06
2017-03-31T00:10:12.736Z,38.16
2017-03-31T00:11:13.053Z,38.16
2017-03-31T00:12:13.060Z,38.35
2017-03-31T00:13:13.115Z,38.16
2017-03-31T00:14:13.071Z,38.16
2017-03-31T00:15:14.028Z,38.06
2017-03-31T00:16:13.138Z,38.06
2017-03-31T00:17:12.776Z,38.06
2017-03-31T00:18:13.099Z,38.16
2017-03-31T00:19:13.302Z,38.06
2017-03-31T00:20:13.110Z,38.06
2017-03-31T00:21:13.312Z,38.06
2017-03-31T00:22:13.172Z,38.16
2017-03-31T00:23:13.176Z,38.16
2017-03-31T00:24:14.023Z,38.26
2017-03-31T00:25:13.185Z,38.16
2017-03-31T00:26:13.796Z,38.16
2017-03-31T00:27:13.150Z,38.06
2017-03-31T00:28:13.204Z,38.16
2017-03-31T00:29:13.160Z,38.16
2017-03-31T00:30:13.219Z,38.06
2017-03-31T00:31:13.222Z,38.06
2017-03-31T00:32:13.229Z,38.06
2017-03-31T00:33:13.185Z,38.14
2017-03-31T00:34:13.189Z,38.16
2017-03-31T00:35:14.172Z,38.16
2017-03-31T00:36:13.206Z,38.16
2017-03-31T00:37:14.057Z,37.96
2017-03-31T00:38:12.950Z,38.06
2017-03-31T00:39:13.269Z,38.06
2017-03-31T00:40:13.225Z,37.85
2017-03-31T00:41:13.389Z,37.96
2017-03-31T00:42:13.285Z,37.85
2017-03-31T00:43:12.930Z,38.33
2017-03-31T00:44:13.902Z,38.14
2017-03-31T00:45:13.260Z,38.16
2017-03-31T00:46:13.261Z,38.24
2017-03-31T00:47:13.374Z,37.66
2017-03-31T00:48:13.273Z,37.77
2017-03-31T00:49:13.383Z,37.96
2017-03-31T00:50:13.285Z,37.77
2017-03-31T00:51:13.292Z,38.43
2017-03-31T00:52:13.348Z,37.96
2017-03-31T00:53:13.301Z,37.66
2017-03-31T00:54:13.305Z,38.24
2017-03-31T00:55:13.715Z,37.87
2017-03-31T00:56:13.318Z,38.33
2017-03-31T00:57:13.377Z,37.68
2017-03-31T00:58:13.383Z,38.35
2017-03-31T00:59:13.025Z,38.24
2017-03-31T01:00:13.031Z,37.77
2017-03-31T01:01:13.449Z,38.26
2017-03-31T01:02:13.040Z,38.24
2017-03-31T01:03:13.461Z,37.68
2017-03-31T01:04:13.372Z,38.14
2017-03-31T01:05:13.375Z,38.16
2017-03-31T01:06:13.977Z,38.14
2017-03-31T01:07:13.434Z,38.14
2017-03-31T01:08:13.489Z,38.16
2017-03-31T01:09:13.445Z,38.16
2017-03-31T01:10:13.452Z,37.95
2017-03-31T01:11:13.458Z,37.96
2017-03-31T01:12:13.415Z,38.14
2017-03-31T01:13:13.106Z,38.14
2017-03-31T01:14:13.429Z,38.14
2017-03-31T01:15:13.482Z,37.96
2017-03-31T01:16:13.440Z,38.14
2017-03-31T01:17:14.143Z,38.14
2017-03-31T01:18:13.448Z,38.14
2017-03-31T01:19:13.506Z,37.95
2017-03-31T01:20:13.461Z,37.66
2017-03-31T01:21:13.525Z,37.95
2017-03-31T01:22:13.473Z,37.95
2017-03-31T01:23:13.477Z,37.68
2017-03-31T01:24:14.083Z,38.33
2017-03-31T01:25:13.277Z,37.66
2017-03-31T01:26:13.185Z,37.95
2017-03-31T01:27:13.551Z,37.76
2017-03-31T01:28:14.157Z,38.14
2017-03-31T01:29:13.516Z,38.26
2017-03-31T01:30:13.518Z,37.68
2017-03-31T01:31:13.212Z,38.26
2017-03-31T01:32:13.541Z,37.66
2017-03-31T01:33:13.537Z,38.14
2017-03-31T01:34:13.542Z,38.24
2017-03-31T01:35:13.599Z,37.76
2017-03-31T01:36:13.242Z,38.33
2017-03-31T01:37:13.610Z,37.76
2017-03-31T01:38:13.566Z,38.24
2017-03-31T01:39:14.176Z,38.33
2017-03-31T01:40:13.577Z,38.24
2017-03-31T01:41:13.649Z,38.33
2017-03-31T01:42:13.590Z,38.24
2017-03-31T01:43:13.595Z,38.33
2017-03-31T01:44:13.652Z,38.24
2017-03-31T01:45:13.658Z,38.14
2017-03-31T01:46:13.452Z,38.14
2017-03-31T01:47:13.619Z,38.33
2017-03-31T01:48:13.623Z,38.24
2017-03-31T01:49:13.319Z,38.33
2017-03-31T01:50:14.087Z,38.24
2017-03-31T01:51:13.381Z,38.33
2017-03-31T01:52:13.696Z,38.33
2017-03-31T01:53:13.704Z,38.24
2017-03-31T01:54:13.660Z,38.43
2017-03-31T01:55:13.715Z,38.24
2017-03-31T01:56:13.727Z,38.24
2017-03-31T01:57:13.728Z,38.24
2017-03-31T01:58:14.084Z,38.33
2017-03-31T01:59:13.741Z,38.24
2017-03-31T02:00:13.385Z,38.14
2017-03-31T02:01:14.206Z,38.24
2017-03-31T02:02:13.709Z,38.24
2017-03-31T02:03:13.714Z,38.24
2017-03-31T02:04:13.719Z,38.24
2017-03-31T02:05:13.775Z,38.24
2017-03-31T02:06:13.468Z,38.14
2017-03-31T02:07:13.737Z,38.33
2017-03-31T02:08:13.794Z,38.24
2017-03-31T02:09:13.796Z,38.33
2017-03-31T02:10:13.809Z,38.33
2017-03-31T02:11:13.810Z,38.24
2017-03-31T02:12:15.368Z,38.24
2017-03-31T02:13:13.772Z,38.24
2017-03-31T02:14:13.775Z,38.24
2017-03-31T02:15:13.885Z,38.24
2017-03-31T02:16:13.791Z,38.24
2017-03-31T02:17:13.846Z,38.33
2017-03-31T02:18:13.851Z,38.24
2017-03-31T02:19:13.808Z,38.24
2017-03-31T02:20:13.600Z,38.24
2017-03-31T02:21:13.871Z,38.24
2017-03-31T02:22:14.826Z,38.14
2017-03-31T02:23:14.080Z,38.24
2017-03-31T02:24:13.522Z,38.24
2017-03-31T02:25:13.841Z,37.85
2017-03-31T02:26:13.848Z,37.95
2017-03-31T02:27:13.855Z,38.33
2017-03-31T02:28:13.909Z,38.14
2017-03-31T02:29:13.915Z,38.14
2017-03-31T02:30:13.924Z,37.95
2017-03-31T02:31:13.878Z,37.95
2017-03-31T02:32:13.886Z,37.95
2017-03-31T02:33:13.582Z,38.14
2017-03-31T02:34:13.831Z,37.95
2017-03-31T02:35:13.901Z,37.95
2017-03-31T02:36:13.912Z,38.04
2017-03-31T02:37:13.971Z,38.04
2017-03-31T02:38:13.915Z,38.14
2017-03-31T02:39:14.022Z,38.04
2017-03-31T02:40:13.667Z,38.04
2017-03-31T02:41:13.938Z,38.04
2017-03-31T02:42:13.991Z,38.14
2017-03-31T02:43:13.995Z,38.14
2017-03-31T02:44:14.000Z,38.04
2017-03-31T02:45:14.108Z,38.04
2017-03-31T02:46:14.017Z,38.14
2017-03-31T02:47:13.972Z,38.04
2017-03-31T02:48:14.025Z,38.24
2017-03-31T02:49:15.180Z,38.14
2017-03-31T02:50:14.038Z,38.14
2017-03-31T02:51:14.042Z,38.04
2017-03-31T02:52:14.000Z,38.04
2017-03-31T02:53:14.104Z,37.95
2017-03-31T02:54:14.110Z,38.14
2017-03-31T02:55:13.704Z,38.04
2017-03-31T02:56:14.174Z,38.14
2017-03-31T02:57:14.029Z,38.04
2017-03-31T02:58:14.035Z,38.24
2017-03-31T02:59:14.043Z,38.14
2017-03-31T03:00:15.154Z,38.04
2017-03-31T03:01:14.053Z,38.14
2017-03-31T03:02:14.057Z,38.04
2017-03-31T03:03:14.363Z,38.24
2017-03-31T03:04:14.068Z,38.04
2017-03-31T03:05:14.127Z,38.24
2017-03-31T03:06:14.082Z,38.14
2017-03-31T03:07:14.087Z,38.14
2017-03-31T03:08:14.092Z,37.95
2017-03-31T03:09:14.096Z,38.04
2017-03-31T03:10:13.842Z,38.04
2017-03-31T03:11:15.111Z,37.95
2017-03-31T03:12:14.114Z,37.95
2017-03-31T03:13:13.860Z,38.14
2017-03-31T03:14:14.127Z,37.95
2017-03-31T03:15:14.435Z,38.24
2017-03-31T03:16:14.140Z,38.33
2017-03-31T03:17:14.143Z,38.24
2017-03-31T03:18:14.198Z,38.24
2017-03-31T03:19:14.205Z,38.33
2017-03-31T03:20:13.847Z,38.33
2017-03-31T03:21:14.217Z,38.24
2017-03-31T03:22:15.075Z,38.33
2017-03-31T03:23:14.227Z,38.24
2017-03-31T03:24:14.235Z,38.24
2017-03-31T03:25:14.243Z,38.33
2017-03-31T03:26:14.197Z,38.24
2017-03-31T03:27:14.252Z,38.24
2017-03-31T03:28:14.257Z,38.33
2017-03-31T03:29:14.213Z,38.24
2017-03-31T03:30:14.218Z,38.24
2017-03-31T03:31:15.198Z,38.24
2017-03-31T03:32:14.321Z,38.24
2017-03-31T03:33:15.086Z,37.66
2017-03-31T03:34:14.292Z,37.76
2017-03-31T03:35:14.257Z,37.85
2017-03-31T03:36:14.257Z,37.66
2017-03-31T03:37:14.310Z,38.04
2017-03-31T03:38:14.003Z,38.33
2017-03-31T03:39:14.273Z,38.14
2017-03-31T03:40:15.130Z,37.66
2017-03-31T03:41:14.283Z,37.66
2017-03-31T03:42:15.243Z,38.43
2017-03-31T03:43:14.393Z,38.24
2017-03-31T03:44:15.000Z,38.04
2017-03-31T03:45:14.304Z,37.66
2017-03-31T03:46:14.348Z,37.85
2017-03-31T03:47:14.318Z,38.04
2017-03-31T03:48:14.322Z,37.95
2017-03-31T03:49:14.382Z,38.04
2017-03-31T03:50:14.384Z,38.04
2017-03-31T03:51:14.341Z,38.43
2017-03-31T03:52:14.345Z,38.24
2017-03-31T03:53:15.476Z,37.76
2017-03-31T03:54:14.406Z,38.24
2017-03-31T03:55:14.913Z,38.33
2017-03-31T03:56:14.426Z,37.85
2017-03-31T03:57:14.428Z,38.24
2017-03-31T03:58:14.379Z,37.76
2017-03-31T03:59:14.439Z,37.95
2017-03-31T04:00:14.392Z,37.95
2017-03-31T04:01:14.448Z,37.95
2017-03-31T04:02:14.402Z,37.76
2017-03-31T04:03:14.460Z,38.24
2017-03-31T04:04:14.153Z,38.14
2017-03-31T04:05:14.421Z,37.95
2017-03-31T04:06:15.176Z,37.66
2017-03-31T04:07:14.435Z,38.04
2017-03-31T04:08:14.439Z,38.14
2017-03-31T04:09:14.180Z,38.14
2017-03-31T04:10:14.449Z,38.14
2017-03-31T04:11:14.507Z,37.66
2017-03-31T04:12:14.560Z,37.66
2017-03-31T04:13:14.515Z,37.66
2017-03-31T04:14:14.522Z,38.24
2017-03-31T04:15:15.454Z,38.24
2017-03-31T04:16:14.485Z,38.24
2017-03-31T04:17:15.241Z,38.33
2017-03-31T04:18:14.493Z,37.76
2017-03-31T04:19:14.552Z,38.24
2017-03-31T04:20:14.511Z,38.24
2017-03-31T04:21:14.249Z,38.24
2017-03-31T04:22:14.207Z,38.14
2017-03-31T04:23:14.578Z,37.76
2017-03-31T04:24:14.530Z,37.76
2017-03-31T04:25:14.537Z,38.33
2017-03-31T04:26:14.546Z,38.24
2017-03-31T04:27:14.236Z,38.04
2017-03-31T04:28:15.606Z,38.14
2017-03-31T04:29:14.561Z,37.95
2017-03-31T04:30:14.602Z,37.95
2017-03-31T04:31:14.874Z,38.14
2017-03-31T04:32:14.577Z,38.04
2017-03-31T04:33:15.083Z,38.04
2017-03-31T04:34:14.588Z,38.14
2017-03-31T04:35:14.287Z,38.14
2017-03-31T04:36:14.651Z,37.66
2017-03-31T04:37:14.606Z,37.95
2017-03-31T04:38:14.668Z,38.04
2017-03-31T04:39:15.569Z,38.14
2017-03-31T04:40:14.624Z,38.04
2017-03-31T04:41:14.629Z,38.24
2017-03-31T04:42:14.685Z,38.14
2017-03-31T04:43:14.644Z,38.04
2017-03-31T04:44:14.646Z,38.14
2017-03-31T04:45:14.651Z,38.14
2017-03-31T04:46:14.657Z,38.24
2017-03-31T04:47:14.351Z,38.14
2017-03-31T04:48:14.359Z,38.14
2017-03-31T04:49:14.676Z,38.14
2017-03-31T04:50:15.538Z,38.04
2017-03-31T04:51:14.685Z,38.04
2017-03-31T04:52:14.379Z,38.14
2017-03-31T04:53:14.386Z,38.14
2017-03-31T04:54:14.392Z,38.14
2017-03-31T04:55:14.710Z,38.14
2017-03-31T04:56:14.773Z,38.24
2017-03-31T04:57:14.773Z,38.14
2017-03-31T04:58:14.417Z,38.14
2017-03-31T04:59:14.733Z,38.14
2017-03-31T05:00:14.741Z,38.14
2017-03-31T05:01:15.848Z,38.14
2017-03-31T05:02:14.801Z,38.24
2017-03-31T05:03:14.755Z,38.24
2017-03-31T05:04:15.163Z,38.14
2017-03-31T05:05:14.820Z,38.04
2017-03-31T05:06:14.824Z,38.04
2017-03-31T05:07:14.782Z,38.24
2017-03-31T05:08:14.785Z,38.04
2017-03-31T05:09:14.481Z,38.04
2017-03-31T05:10:14.797Z,38.24
2017-03-31T05:11:14.856Z,38.04
2017-03-31T05:12:15.930Z,38.04
2017-03-31T05:13:14.502Z,38.14
2017-03-31T05:14:14.870Z,38.24
2017-03-31T05:15:14.515Z,37.85
2017-03-31T05:16:14.832Z,38.04
2017-03-31T05:17:14.838Z,38.14
2017-03-31T05:18:14.843Z,37.95
2017-03-31T05:19:14.948Z,37.95
2017-03-31T05:20:14.953Z,37.95
2017-03-31T05:21:14.863Z,37.95
2017-03-31T05:22:14.867Z,38.24
2017-03-31T05:23:15.923Z,37.95
2017-03-31T05:24:14.880Z,38.04
2017-03-31T05:25:14.574Z,37.95
2017-03-31T05:26:14.938Z,37.85
2017-03-31T05:27:14.895Z,37.76
2017-03-31T05:28:15.003Z,37.76
2017-03-31T05:29:14.646Z,37.56
2017-03-31T05:30:14.916Z,37.46
2017-03-31T05:31:14.971Z,37.85
2017-03-31T05:32:16.001Z,37.76
2017-03-31T05:33:14.932Z,37.56
2017-03-31T05:34:15.837Z,37.66
2017-03-31T05:35:14.994Z,37.66
2017-03-31T05:36:14.949Z,37.46
2017-03-31T05:37:15.054Z,37.76
2017-03-31T05:38:14.647Z,37.46
2017-03-31T05:39:15.014Z,37.56
2017-03-31T05:40:15.022Z,37.58
2017-03-31T05:41:15.034Z,37.56
2017-03-31T05:42:14.984Z,37.66
2017-03-31T05:43:15.959Z,37.46
2017-03-31T05:44:15.046Z,37.39
2017-03-31T05:45:15.052Z,37.19
2017-03-31T05:46:14.794Z,37.1
2017-03-31T05:47:15.014Z,37.19
2017-03-31T05:48:15.018Z,36.81
2017-03-31T05:49:15.073Z,37.39
2017-03-31T05:50:15.028Z,37.29
2017-03-31T05:51:15.084Z,37.1
2017-03-31T05:52:15.239Z,37.39
2017-03-31T05:53:15.047Z,37.29
2017-03-31T05:54:14.793Z,37.1
2017-03-31T05:55:15.058Z,37.29
2017-03-31T05:56:16.198Z,37.01
2017-03-31T05:57:15.076Z,37.1
2017-03-31T05:58:15.077Z,36.91
2017-03-31T05:59:15.080Z,37.1
2017-03-31T06:00:15.140Z,36.71
2017-03-31T06:01:15.146Z,36.61
2017-03-31T06:02:15.133Z,36.71
2017-03-31T06:03:15.107Z,36.61
2017-03-31T06:04:15.162Z,36.71
2017-03-31T06:05:15.167Z,36.61
2017-03-31T06:06:15.128Z,36.91
2017-03-31T06:07:14.870Z,36.61
2017-03-31T06:08:15.136Z,36.52
2017-03-31T06:09:15.141Z,36.71
2017-03-31T06:10:15.147Z,36.33
2017-03-31T06:11:15.251Z,36.33
2017-03-31T06:12:15.210Z,36.35
2017-03-31T06:13:15.163Z,36.25
2017-03-31T06:14:15.171Z,36.33
2017-03-31T06:15:15.178Z,36.44
2017-03-31T06:16:15.184Z,36.25
2017-03-31T06:17:15.290Z,36.25
2017-03-31T06:18:16.194Z,35.96
2017-03-31T06:19:15.199Z,35.77
2017-03-31T06:20:15.257Z,35.77
2017-03-31T06:21:15.214Z,35.67
2017-03-31T06:22:15.272Z,36.06
2017-03-31T06:23:15.227Z,36.15
2017-03-31T06:24:15.286Z,36.25
2017-03-31T06:25:15.491Z,36.35
2017-03-31T06:26:15.242Z,35.77
2017-03-31T06:27:15.255Z,35.28
2017-03-31T06:28:15.306Z,35.48
2017-03-31T06:29:16.397Z,35.48
2017-03-31T06:30:15.269Z,35.48
2017-03-31T06:31:15.274Z,35.4
2017-03-31T06:32:15.330Z,35.5
2017-03-31T06:33:15.284Z,35.4
2017-03-31T06:34:15.345Z,35.58
2017-03-31T06:35:15.350Z,35.5
2017-03-31T06:36:15.405Z,35.58
2017-03-31T06:37:15.315Z,35.38
2017-03-31T06:38:15.325Z,35.59
2017-03-31T06:39:15.324Z,35.3
2017-03-31T06:40:16.537Z,35.3
2017-03-31T06:41:15.338Z,35.21
2017-03-31T06:42:15.395Z,35.3
2017-03-31T06:43:15.401Z,35.4
2017-03-31T06:44:15.360Z,35.3
2017-03-31T06:45:15.368Z,35.02
2017-03-31T06:46:15.420Z,35.21
2017-03-31T06:47:15.374Z,35.11
2017-03-31T06:48:15.380Z,34.92
2017-03-31T06:49:15.386Z,35.11
2017-03-31T06:50:15.082Z,34.92
2017-03-31T06:51:16.450Z,34.82
2017-03-31T06:52:15.458Z,34.92
2017-03-31T06:53:15.411Z,35.02
2017-03-31T06:54:15.418Z,35.02
2017-03-31T06:55:15.425Z,35.21
2017-03-31T06:56:15.433Z,35.4
2017-03-31T06:57:15.438Z,35.3
2017-03-31T06:58:15.593Z,35.3
2017-03-31T06:59:15.241Z,35.21
2017-03-31T07:00:15.506Z,35.4
2017-03-31T07:01:15.151Z,35.3
2017-03-31T07:02:15.157Z,35.02
2017-03-31T07:03:15.476Z,34.92
2017-03-31T07:04:15.532Z,35.02
2017-03-31T07:05:15.174Z,35.02
2017-03-31T07:06:15.594Z,35.11
2017-03-31T07:07:15.186Z,35.11
2017-03-31T07:08:15.557Z,35.21
2017-03-31T07:09:15.612Z,35.11
2017-03-31T07:10:15.519Z,35.11
2017-03-31T07:11:15.526Z,34.82
2017-03-31T07:12:15.581Z,35.02
2017-03-31T07:13:15.224Z,35.02
2017-03-31T07:14:15.897Z,35.02
2017-03-31T07:15:15.602Z,35.02
2017-03-31T07:16:15.558Z,35.02
2017-03-31T07:17:15.613Z,35.02
2017-03-31T07:18:15.568Z,34.92
2017-03-31T07:19:15.577Z,35.02
2017-03-31T07:20:15.581Z,35.02
2017-03-31T07:21:15.592Z,35.02
2017-03-31T07:22:16.616Z,35.02
2017-03-31T07:23:15.599Z,35.21
2017-03-31T07:24:16.392Z,35.21
2017-03-31T07:25:15.619Z,35.02
2017-03-31T07:26:15.670Z,35.02
2017-03-31T07:27:15.623Z,35.3
2017-03-31T07:28:15.317Z,35.11
2017-03-31T07:29:15.685Z,35.11
2017-03-31T07:30:15.695Z,35.11
2017-03-31T07:31:15.752Z,35.02
2017-03-31T07:32:15.705Z,35.02
2017-03-31T07:33:15.662Z,34.82
2017-03-31T07:34:15.718Z,34.92
2017-03-31T07:35:16.759Z,35.02
2017-03-31T07:36:15.419Z,35.02
2017-03-31T07:37:15.687Z,35.02
2017-03-31T07:38:15.431Z,34.92
2017-03-31T07:39:15.699Z,35.02
2017-03-31T07:40:15.708Z,35.02
2017-03-31T07:41:15.764Z,35.02
2017-03-31T07:42:15.712Z,35.02
2017-03-31T07:43:15.727Z,35.11
2017-03-31T07:44:15.731Z,35.02
2017-03-31T07:45:15.736Z,35.11
2017-03-31T07:46:15.794Z,35.02
2017-03-31T07:47:15.806Z,35.02
2017-03-31T07:48:15.808Z,35.02
2017-03-31T07:49:15.763Z,35.11
2017-03-31T07:50:15.457Z,35.02
2017-03-31T07:51:15.830Z,35.11
2017-03-31T07:52:15.832Z,35.11
2017-03-31T07:53:15.825Z,34.92
2017-03-31T07:54:15.845Z,35.02
2017-03-31T07:55:15.799Z,35.11
2017-03-31T07:56:15.494Z,35.11
2017-03-31T07:57:15.814Z,34.82
2017-03-31T07:58:15.821Z,34.63
2017-03-31T07:59:15.876Z,34.63
2017-03-31T08:00:15.834Z,34.63
2017-03-31T08:01:15.846Z,34.72
2017-03-31T08:02:15.846Z,34.63
2017-03-31T08:03:15.852Z,34.82
2017-03-31T08:04:16.507Z,34.82
2017-03-31T08:05:15.862Z,34.92
2017-03-31T08:06:15.758Z,34.92
2017-03-31T08:07:15.877Z,34.82
2017-03-31T08:08:15.935Z,34.92
2017-03-31T08:09:15.888Z,34.72
2017-03-31T08:10:15.897Z,34.92
2017-03-31T08:11:15.900Z,34.53
2017-03-31T08:12:15.958Z,34.84
2017-03-31T08:13:15.605Z,34.92
2017-03-31T08:14:15.972Z,34.36
2017-03-31T08:15:16.628Z,34.45
2017-03-31T08:16:15.985Z,34.55
2017-03-31T08:17:15.942Z,34.55
2017-03-31T08:18:16.047Z,34.84
2017-03-31T08:19:15.692Z,34.26
2017-03-31T08:20:15.964Z,34.06
2017-03-31T08:21:15.703Z,34.26
2017-03-31T08:22:15.975Z,34.55
2017-03-31T08:23:16.030Z,34.45
2017-03-31T08:24:16.088Z,34.55
2017-03-31T08:25:16.045Z,34.56
2017-03-31T08:26:17.199Z,33.98
2017-03-31T08:27:16.054Z,34.18
2017-03-31T08:28:16.213Z,33.14
2017-03-31T08:29:16.069Z,31.12
2017-03-31T08:30:16.030Z,29.24
2017-03-31T08:31:16.086Z,28.39
2017-03-31T08:32:16.041Z,27.33
2017-03-31T08:33:16.047Z,25.9
2017-03-31T08:34:16.104Z,24.87
2017-03-31T08:35:16.063Z,24.6
2017-03-31T08:36:15.808Z,25.27
2017-03-31T08:37:16.827Z,26.12
2017-03-31T08:38:16.082Z,26.01
2017-03-31T08:39:16.241Z,26.21
2017-03-31T08:40:16.149Z,26.89
2017-03-31T08:41:16.157Z,26.97
2017-03-31T08:42:16.116Z,27.64
2017-03-31T08:43:16.111Z,27.62
2017-03-31T08:44:16.128Z,26.75
2017-03-31T08:45:16.242Z,25.71
2017-03-31T08:46:16.145Z,25.74
2017-03-31T08:47:16.204Z,26.42
2017-03-31T08:48:16.964Z,27.18
2017-03-31T08:49:16.222Z,27.28
2017-03-31T08:50:16.377Z,27.75
2017-03-31T08:51:15.925Z,27.56
2017-03-31T08:52:16.198Z,27.84
2017-03-31T08:53:16.205Z,27.46
2017-03-31T08:54:15.896Z,26.89
2017-03-31T08:55:16.266Z,26.32
2017-03-31T08:56:15.962Z,26.61
2017-03-31T08:57:16.229Z,26.61
2017-03-31T08:58:16.286Z,26.6
2017-03-31T08:59:17.346Z,26.12
2017-03-31T09:00:16.302Z,27.48
2017-03-31T09:01:16.758Z,28.33
2017-03-31T09:02:16.364Z,28.7
2017-03-31T09:03:16.281Z,29.47
2017-03-31T09:04:16.328Z,30.99
2017-03-31T09:05:16.026Z,31.46
2017-03-31T09:06:16.293Z,32.21
2017-03-31T09:07:16.299Z,32.78
2017-03-31T09:08:16.000Z,33.05
2017-03-31T09:09:16.314Z,33.34
2017-03-31T09:10:17.421Z,34.12
2017-03-31T09:11:16.329Z,33.72
2017-03-31T09:12:16.787Z,34.12
2017-03-31T09:13:16.392Z,33.91
2017-03-31T09:14:16.086Z,33.92
2017-03-31T09:15:16.406Z,34.48
2017-03-31T09:16:16.364Z,34.58
2017-03-31T09:17:16.424Z,34.58
2017-03-31T09:18:16.425Z,34.68
2017-03-31T09:19:17.286Z,34.68
2017-03-31T09:20:16.127Z,35.06
2017-03-31T09:21:16.450Z,34.97
2017-03-31T09:22:16.456Z,34.97
2017-03-31T09:23:17.418Z,34.97
2017-03-31T09:24:16.418Z,34.78
2017-03-31T09:25:16.424Z,34.78
2017-03-31T09:26:16.481Z,34.58
2017-03-31T09:27:16.441Z,34.58
2017-03-31T09:28:16.141Z,34.68
2017-03-31T09:29:16.455Z,34.68
2017-03-31T09:30:16.512Z,34.68
2017-03-31T09:31:16.467Z,35.06
2017-03-31T09:32:16.523Z,34.58
2017-03-31T09:33:16.481Z,34.58
2017-03-31T09:34:17.490Z,34.68
2017-03-31T09:35:16.548Z,35.16
2017-03-31T09:36:16.500Z,34.87
2017-03-31T09:37:16.559Z,35.06
2017-03-31T09:38:16.514Z,34.78
2017-03-31T09:39:16.522Z,34.68
2017-03-31T09:40:16.270Z,35.06
2017-03-31T09:41:16.585Z,34.97
2017-03-31T09:42:16.540Z,35.05
2017-03-31T09:43:16.547Z,35.06
2017-03-31T09:44:16.607Z,35.16
2017-03-31T09:45:17.715Z,35.06
2017-03-31T09:46:16.309Z,35.16
2017-03-31T09:47:16.678Z,35.06
2017-03-31T09:48:17.026Z,35.06
2017-03-31T09:49:16.590Z,35.05
2017-03-31T09:50:16.649Z,34.97
2017-03-31T09:51:16.655Z,34.97
2017-03-31T09:52:16.662Z,35.06
2017-03-31T09:53:16.620Z,35.16
2017-03-31T09:54:16.313Z,35.05
2017-03-31T09:55:16.635Z,35.06
2017-03-31T09:56:17.820Z,35.16
2017-03-31T09:57:16.648Z,35.16
2017-03-31T09:58:16.705Z,34.97
2017-03-31T09:59:16.713Z,35.36
2017-03-31T10:00:16.668Z,35.45
2017-03-31T10:01:16.674Z,35.36
2017-03-31T10:02:16.782Z,35.34
2017-03-31T10:03:16.689Z,35.55
2017-03-31T10:04:16.751Z,35.72
2017-03-31T10:05:16.701Z,35.72
2017-03-31T10:06:16.710Z,36.3
2017-03-31T10:07:16.720Z,35.63
2017-03-31T10:08:16.821Z,35.64
2017-03-31T10:09:16.780Z,35.72
2017-03-31T10:10:16.735Z,35.63
2017-03-31T10:11:16.481Z,36.21
2017-03-31T10:12:16.752Z,36.01
2017-03-31T10:13:16.757Z,35.82
2017-03-31T10:14:16.765Z,35.82
2017-03-31T10:15:16.769Z,35.72
2017-03-31T10:16:16.779Z,36.01
2017-03-31T10:17:16.835Z,35.74
2017-03-31T10:18:16.798Z,36.3
2017-03-31T10:19:16.797Z,35.63
2017-03-31T10:20:16.806Z,36.22
2017-03-31T10:21:16.812Z,35.53
2017-03-31T10:22:16.819Z,36.22
2017-03-31T10:23:16.570Z,36.21
2017-03-31T10:24:16.882Z,35.84
2017-03-31T10:25:16.891Z,36.03
2017-03-31T10:26:16.536Z,36.03
2017-03-31T10:27:17.385Z,35.94
2017-03-31T10:28:16.917Z,35.64
2017-03-31T10:29:16.923Z,35.64
2017-03-31T10:30:16.873Z,35.64
2017-03-31T10:31:16.937Z,36.03
2017-03-31T10:32:16.888Z,35.84
2017-03-31T10:33:16.893Z,36.03
2017-03-31T10:34:16.952Z,35.84
2017-03-31T10:35:16.916Z,36.13
2017-03-31T10:36:16.915Z,36.13
2017-03-31T10:37:17.025Z,36.42
2017-03-31T10:38:17.633Z,36.42
2017-03-31T10:39:16.935Z,36.5
2017-03-31T10:40:16.992Z,36.32
2017-03-31T10:41:16.949Z,36.52
2017-03-31T10:42:16.956Z,36.42
2017-03-31T10:43:16.964Z,36.22
2017-03-31T10:44:17.045Z,36.42
2017-03-31T10:45:16.769Z,36.42
2017-03-31T10:46:16.675Z,36.22
2017-03-31T10:47:17.044Z,36.61
2017-03-31T10:48:16.997Z,36.4
2017-03-31T10:49:17.607Z,36.5
2017-03-31T10:50:16.700Z,36.42
2017-03-31T10:51:17.030Z,36.52
2017-03-31T10:52:17.081Z,36.5
2017-03-31T10:53:17.036Z,36.71
2017-03-31T10:54:17.040Z,36.69
2017-03-31T10:55:17.096Z,36.98
2017-03-31T10:56:17.105Z,36.59
2017-03-31T10:57:16.798Z,36.52
2017-03-31T10:58:16.755Z,36.79
2017-03-31T10:59:17.075Z,36.88
2017-03-31T11:00:16.819Z,36.69
2017-03-31T11:01:17.093Z,36.69
2017-03-31T11:02:17.348Z,36.88
2017-03-31T11:03:17.103Z,36.79
2017-03-31T11:04:17.109Z,36.69
2017-03-31T11:05:17.119Z,36.79
2017-03-31T11:06:17.125Z,36.69
2017-03-31T11:07:17.132Z,36.69
2017-03-31T11:08:17.236Z,36.4
2017-03-31T11:09:17.200Z,36.59
2017-03-31T11:10:17.202Z,36.59
2017-03-31T11:11:17.157Z,36.4
2017-03-31T11:12:17.216Z,36.5
2017-03-31T11:13:17.722Z,36.5
2017-03-31T11:14:17.234Z,36.79
2017-03-31T11:15:17.186Z,36.69
2017-03-31T11:16:17.194Z,36.69
2017-03-31T11:17:17.548Z,36.79
2017-03-31T11:18:17.206Z,37.08
2017-03-31T11:19:17.265Z,36.69
2017-03-31T11:20:17.225Z,37.17
2017-03-31T11:21:17.230Z,37.08
2017-03-31T11:22:17.283Z,37.17
2017-03-31T11:23:16.930Z,37.17
2017-03-31T11:24:17.948Z,37.27
2017-03-31T11:25:17.311Z,37.17
2017-03-31T11:26:16.950Z,36.79
2017-03-31T11:27:17.272Z,36.5
2017-03-31T11:28:17.328Z,36.88
2017-03-31T11:29:17.285Z,36.69
2017-03-31T11:30:17.344Z,36.77
2017-03-31T11:31:16.989Z,36.88
2017-03-31T11:32:17.303Z,36.5
2017-03-31T11:33:17.361Z,37.08
2017-03-31T11:34:17.318Z,37.08
2017-03-31T11:35:18.077Z,37.27
2017-03-31T11:36:17.383Z,37.17
2017-03-31T11:37:17.389Z,37.17
2017-03-31T11:38:18.198Z,37.25
2017-03-31T11:39:17.402Z,37.25
2017-03-31T11:40:17.360Z,37.46
2017-03-31T11:41:17.367Z,37.17
2017-03-31T11:42:17.424Z,37.27
2017-03-31T11:43:17.379Z,36.98
2017-03-31T11:44:17.788Z,37.08
2017-03-31T11:45:17.394Z,36.4
2017-03-31T11:46:17.401Z,36.88
2017-03-31T11:47:17.409Z,36.87
2017-03-31T11:48:17.465Z,36.98
2017-03-31T11:49:17.473Z,36.88
2017-03-31T11:50:17.127Z,36.67
2017-03-31T11:51:17.487Z,36.77
2017-03-31T11:52:17.445Z,36.79
2017-03-31T11:53:17.450Z,36.69
2017-03-31T11:54:17.506Z,36.79
2017-03-31T11:55:17.562Z,36.69
2017-03-31T11:56:17.521Z,36.48
2017-03-31T11:57:17.212Z,36.67
2017-03-31T11:58:17.484Z,36.38
2017-03-31T11:59:17.490Z,36.4
2017-03-31T12:00:17.498Z,36.67
2017-03-31T12:01:17.190Z,36.59
2017-03-31T12:02:17.513Z,36.38
2017-03-31T12:03:17.204Z,36.69
2017-03-31T12:04:17.218Z,36.4
2017-03-31T12:05:17.530Z,36.59
2017-03-31T12:06:18.440Z,36.59
2017-03-31T12:07:18.346Z,36.59
2017-03-31T12:08:17.702Z,36.59
2017-03-31T12:09:17.557Z,36.5
2017-03-31T12:10:17.565Z,36.38
2017-03-31T12:11:17.623Z,36.38
2017-03-31T12:12:17.578Z,36.48
2017-03-31T12:13:17.636Z,36.48
2017-03-31T12:14:17.699Z,36.57
2017-03-31T12:15:17.920Z,36.38
2017-03-31T12:16:17.607Z,36.57
2017-03-31T12:17:18.729Z,36.57
2017-03-31T12:18:17.621Z,36.48
2017-03-31T12:19:18.125Z,36.48
2017-03-31T12:20:17.632Z,36.38
2017-03-31T12:21:17.642Z,36.38
2017-03-31T12:22:17.697Z,36.48
2017-03-31T12:23:17.755Z,36.29
2017-03-31T12:24:17.663Z,36.48
2017-03-31T12:25:17.668Z,36.48
2017-03-31T12:26:17.724Z,36.57
2017-03-31T12:27:17.733Z,36.48
2017-03-31T12:28:18.761Z,36.38
2017-03-31T12:29:17.694Z,36.57
2017-03-31T12:30:18.602Z,36.38
2017-03-31T12:31:17.444Z,36.48
2017-03-31T12:32:17.716Z,36.38
2017-03-31T12:33:17.721Z,36.38
2017-03-31T12:34:17.800Z,36.38
2017-03-31T12:35:17.735Z,36.38
2017-03-31T12:36:17.741Z,36.38
2017-03-31T12:37:17.783Z,36.38
2017-03-31T12:38:17.756Z,36.38
2017-03-31T12:39:17.812Z,36.57
2017-03-31T12:40:17.770Z,36.48
2017-03-31T12:41:18.983Z,36.38
2017-03-31T12:42:17.784Z,36.38
2017-03-31T12:43:17.638Z,36.38
2017-03-31T12:44:17.538Z,36.38
2017-03-31T12:45:17.589Z,36.38
2017-03-31T12:46:17.861Z,36.57
2017-03-31T12:47:17.815Z,36.48
2017-03-31T12:48:17.825Z,36.38
2017-03-31T12:49:17.829Z,36.38
2017-03-31T12:50:18.288Z,36.48
2017-03-31T12:51:17.893Z,36.48
2017-03-31T12:52:17.899Z,36.57
2017-03-31T12:53:17.906Z,36.57